sensor_id;sensor_type;location;lat;lon;timestamp;P1;durP1;ratioP1;P2;durP2;ratioP2
73104;SDS011;61296;50.526;30.792;2024-01-10T00:14:43;5.03;;;1.52;;
73104;SDS011;61296;50.526;30.792;2024-01-10T00:30:16;3.53;;;1.80;;
73104;SDS011;61296;50.526;30.792;2024-01-10T00:45:49;5.05;;;1.98;;
73104;SDS011;61296;50.526;30.792;2024-01-10T01:01:22;3.28;;;1.98;;
73104;SDS011;61296;50.526;30.792;2024-01-10T01:16:55;2.80;;;1.80;;
73104;SDS011;61296;50.526;30.792;2024-01-10T01:32:28;4.07;;;2.03;;
73104;SDS011;61296;50.526;30.792;2024-01-10T01:48:01;7.22;;;2.53;;
73104;SDS011;61296;50.526;30.792;2024-01-10T02:03:34;5.03;;;2.38;;
73104;SDS011;61296;50.526;30.792;2024-01-10T02:19:19;5.38;;;2.03;;
73104;SDS011;61296;50.526;30.792;2024-01-10T02:34:54;3.70;;;1.57;;
73104;SDS011;61296;50.526;30.792;2024-01-10T02:50:27;6.13;;;2.70;;
73104;SDS011;61296;50.526;30.792;2024-01-10T03:06:00;5.72;;;2.50;;
73104;SDS011;61296;50.526;30.792;2024-01-10T03:21:33;7.90;;;3.05;;
73104;SDS011;61296;50.526;30.792;2024-01-10T03:37:06;5.90;;;2.78;;
73104;SDS011;61296;50.526;30.792;2024-01-10T03:52:39;6.22;;;2.85;;
73104;SDS011;61296;50.526;30.792;2024-01-10T04:08:12;7.07;;;2.88;;
73104;SDS011;61296;50.526;30.792;2024-01-10T04:23:45;8.40;;;3.25;;
73104;SDS011;61296;50.526;30.792;2024-01-10T04:39:18;8.70;;;3.78;;
73104;SDS011;61296;50.526;30.792;2024-01-10T04:54:51;7.20;;;3.35;;
73104;SDS011;61296;50.526;30.792;2024-01-10T05:10:24;8.55;;;3.53;;
73104;SDS011;61296;50.526;30.792;2024-01-10T05:25:57;6.93;;;3.55;;
73104;SDS011;61296;50.526;30.792;2024-01-10T05:41:30;7.03;;;2.92;;
73104;SDS011;61296;50.526;30.792;2024-01-10T05:57:05;13.70;;;5.50;;
73104;SDS011;61296;50.526;30.792;2024-01-10T06:12:38;11.38;;;5.15;;
73104;SDS011;61296;50.526;30.792;2024-01-10T06:28:11;14.07;;;5.07;;
73104;SDS011;61296;50.526;30.792;2024-01-10T06:43:44;12.40;;;6.43;;
73104;SDS011;61296;50.526;30.792;2024-01-10T06:59:18;16.95;;;6.38;;
73104;SDS011;61296;50.526;30.792;2024-01-10T07:14:51;14.00;;;5.70;;
73104;SDS011;61296;50.526;30.792;2024-01-10T07:30:24;17.20;;;7.43;;
73104;SDS011;61296;50.526;30.792;2024-01-10T07:45:57;18.98;;;6.68;;
73104;SDS011;61296;50.526;30.792;2024-01-10T08:01:34;18.95;;;7.28;;
73104;SDS011;61296;50.526;30.792;2024-01-10T08:17:08;19.85;;;7.40;;
73104;SDS011;61296;50.526;30.792;2024-01-10T08:32:41;19.25;;;6.85;;
73104;SDS011;61296;50.526;30.792;2024-01-10T08:48:15;17.33;;;7.72;;
73104;SDS011;61296;50.526;30.792;2024-01-10T09:03:48;20.08;;;7.80;;
73104;SDS011;61296;50.526;30.792;2024-01-10T09:19:22;21.80;;;5.68;;
73104;SDS011;61296;50.526;30.792;2024-01-10T09:34:55;19.13;;;7.47;;
73104;SDS011;61296;50.526;30.792;2024-01-10T09:50:29;26.60;;;8.52;;
73104;SDS011;61296;50.526;30.792;2024-01-10T10:06:02;24.85;;;9.15;;
73104;SDS011;61296;50.526;30.792;2024-01-10T10:21:36;26.65;;;8.82;;
73104;SDS011;61296;50.526;30.792;2024-01-10T10:37:11;18.90;;;8.23;;
73104;SDS011;61296;50.526;30.792;2024-01-10T10:52:45;18.23;;;7.35;;
73104;SDS011;61296;50.526;30.792;2024-01-10T11:08:21;22.67;;;8.05;;
73104;SDS011;61296;50.526;30.792;2024-01-10T11:23:58;21.80;;;8.90;;
73104;SDS011;61296;50.526;30.792;2024-01-10T11:39:36;24.63;;;7.50;;
73104;SDS011;61296;50.526;30.792;2024-01-10T11:55:09;28.70;;;10.27;;
73104;SDS011;61296;50.526;30.792;2024-01-10T12:11:24;24.65;;;8.98;;
73104;SDS011;61296;50.526;30.792;2024-01-10T12:26:57;24.83;;;9.05;;
73104;SDS011;61296;50.526;30.792;2024-01-10T12:42:31;23.77;;;8.15;;
73104;SDS011;61296;50.526;30.792;2024-01-10T12:58:04;25.58;;;8.18;;
73104;SDS011;61296;50.526;30.792;2024-01-10T13:13:39;21.27;;;8.00;;
73104;SDS011;61296;50.526;30.792;2024-01-10T13:29:13;24.85;;;8.63;;
73104;SDS011;61296;50.526;30.792;2024-01-10T13:44:46;25.55;;;8.50;;
73104;SDS011;61296;50.526;30.792;2024-01-10T14:00:20;26.30;;;9.00;;
73104;SDS011;61296;50.526;30.792;2024-01-10T14:15:55;20.42;;;8.60;;
73104;SDS011;61296;50.526;30.792;2024-01-10T14:31:28;24.83;;;8.88;;
73104;SDS011;61296;50.526;30.792;2024-01-10T14:47:01;25.35;;;9.73;;
73104;SDS011;61296;50.526;30.792;2024-01-10T15:02:35;33.88;;;11.50;;
73104;SDS011;61296;50.526;30.792;2024-01-10T15:18:09;29.20;;;10.90;;
73104;SDS011;61296;50.526;30.792;2024-01-10T15:33:43;30.05;;;9.68;;
73104;SDS011;61296;50.526;30.792;2024-01-10T15:49:18;30.48;;;11.00;;
73104;SDS011;61296;50.526;30.792;2024-01-10T16:04:50;30.27;;;10.80;;
73104;SDS011;61296;50.526;30.792;2024-01-10T16:20:23;34.50;;;10.65;;
73104;SDS011;61296;50.526;30.792;2024-01-10T16:35:56;29.23;;;10.65;;
73104;SDS011;61296;50.526;30.792;2024-01-10T16:51:29;29.60;;;11.82;;
73104;SDS011;61296;50.526;30.792;2024-01-10T17:07:02;28.08;;;11.50;;
73104;SDS011;61296;50.526;30.792;2024-01-10T17:22:35;36.95;;;12.77;;
73104;SDS011;61296;50.526;30.792;2024-01-10T17:38:09;40.97;;;13.43;;
73104;SDS011;61296;50.526;30.792;2024-01-10T17:53:44;54.42;;;18.00;;
73104;SDS011;61296;50.526;30.792;2024-01-10T18:09:18;33.42;;;12.57;;
73104;SDS011;61296;50.526;30.792;2024-01-10T18:24:51;32.88;;;11.93;;
73104;SDS011;61296;50.526;30.792;2024-01-10T18:40:24;33.30;;;12.23;;
73104;SDS011;61296;50.526;30.792;2024-01-10T18:55:58;43.80;;;15.88;;
73104;SDS011;61296;50.526;30.792;2024-01-10T19:11:32;43.33;;;16.00;;
73104;SDS011;61296;50.526;30.792;2024-01-10T19:27:06;42.42;;;15.43;;
73104;SDS011;61296;50.526;30.792;2024-01-10T19:43:02;80.78;;;25.88;;
73104;SDS011;61296;50.526;30.792;2024-01-10T19:58:39;43.27;;;15.43;;
73104;SDS011;61296;50.526;30.792;2024-01-10T20:14:11;41.50;;;14.93;;
73104;SDS011;61296;50.526;30.792;2024-01-10T20:29:46;42.28;;;15.30;;
73104;SDS011;61296;50.526;30.792;2024-01-10T20:45:20;50.55;;;17.58;;
73104;SDS011;61296;50.526;30.792;2024-01-10T21:00:55;45.22;;;16.92;;
73104;SDS011;61296;50.526;30.792;2024-01-10T21:16:28;40.47;;;15.15;;
73104;SDS011;61296;50.526;30.792;2024-01-10T21:32:08;39.20;;;14.73;;
73104;SDS011;61296;50.526;30.792;2024-01-10T21:47:43;46.25;;;15.52;;
73104;SDS011;61296;50.526;30.792;2024-01-10T22:03:16;39.53;;;14.43;;
73104;SDS011;61296;50.526;30.792;2024-01-10T22:18:49;43.97;;;15.82;;
73104;SDS011;61296;50.526;30.792;2024-01-10T22:34:25;44.28;;;15.27;;
73104;SDS011;61296;50.526;30.792;2024-01-10T22:49:57;46.92;;;17.13;;
73104;SDS011;61296;50.526;30.792;2024-01-10T23:05:31;40.90;;;15.20;;
73104;SDS011;61296;50.526;30.792;2024-01-10T23:21:07;37.80;;;13.05;;
73104;SDS011;61296;50.526;30.792;2024-01-10T23:36:42;34.25;;;12.52;;
73104;SDS011;61296;50.526;30.792;2024-01-10T23:52:15;31.17;;;11.45;;
